sensor_id;sensor_type;location;lat;lon;timestamp;P1;durP1;ratioP1;P2;durP2;ratioP2
70920;SDS011;58572;48.110;19.838;2023-08-06T00:01:03;10.02;;;7.47;;
70920;SDS011;58572;48.110;19.838;2023-08-06T00:03:30;8.50;;;7.00;;
70920;SDS011;58572;48.110;19.838;2023-08-06T00:05:57;11.45;;;8.05;;
70920;SDS011;58572;48.110;19.838;2023-08-06T00:08:24;9.07;;;7.25;;
70920;SDS011;58572;48.110;19.838;2023-08-06T00:10:52;10.93;;;7.63;;
70920;SDS011;58572;48.110;19.838;2023-08-06T00:13:20;9.43;;;7.38;;
70920;SDS011;58572;48.110;19.838;2023-08-06T00:15:47;10.13;;;7.38;;
70920;SDS011;58572;48.110;19.838;2023-08-06T00:18:14;10.05;;;8.55;;
70920;SDS011;58572;48.110;19.838;2023-08-06T00:20:42;10.70;;;8.00;;
70920;SDS011;58572;48.110;19.838;2023-08-06T00:25:36;10.38;;;7.75;;
70920;SDS011;58572;48.110;19.838;2023-08-06T00:28:03;11.27;;;7.90;;
70920;SDS011;58572;48.110;19.838;2023-08-06T00:30:32;13.38;;;8.25;;
70920;SDS011;58572;48.110;19.838;2023-08-06T00:32:59;13.82;;;8.98;;
70920;SDS011;58572;48.110;19.838;2023-08-06T00:35:26;10.73;;;7.25;;
70920;SDS011;58572;48.110;19.838;2023-08-06T00:37:53;12.30;;;8.23;;
70920;SDS011;58572;48.110;19.838;2023-08-06T00:40:21;10.38;;;7.55;;
70920;SDS011;58572;48.110;19.838;2023-08-06T00:42:48;9.60;;;7.43;;
70920;SDS011;58572;48.110;19.838;2023-08-06T00:45:16;11.00;;;7.28;;
70920;SDS011;58572;48.110;19.838;2023-08-06T00:47:44;8.65;;;6.57;;
70920;SDS011;58572;48.110;19.838;2023-08-06T00:50:12;8.48;;;6.80;;
70920;SDS011;58572;48.110;19.838;2023-08-06T00:52:39;8.18;;;5.70;;
70920;SDS011;58572;48.110;19.838;2023-08-06T00:55:07;9.00;;;6.97;;
70920;SDS011;58572;48.110;19.838;2023-08-06T00:57:35;8.45;;;6.72;;
70920;SDS011;58572;48.110;19.838;2023-08-06T01:00:02;8.38;;;5.88;;
70920;SDS011;58572;48.110;19.838;2023-08-06T01:02:30;9.68;;;6.47;;
70920;SDS011;58572;48.110;19.838;2023-08-06T01:04:59;7.05;;;5.55;;
70920;SDS011;58572;48.110;19.838;2023-08-06T01:07:30;9.60;;;5.70;;
70920;SDS011;58572;48.110;19.838;2023-08-06T01:10:18;7.60;;;5.18;;
70920;SDS011;58572;48.110;19.838;2023-08-06T01:12:52;6.53;;;5.53;;
70920;SDS011;58572;48.110;19.838;2023-08-06T01:15:28;7.70;;;6.10;;
70920;SDS011;58572;48.110;19.838;2023-08-06T01:17:59;7.35;;;6.22;;
70920;SDS011;58572;48.110;19.838;2023-08-06T01:20:31;10.13;;;6.43;;
70920;SDS011;58572;48.110;19.838;2023-08-06T01:22:58;11.55;;;7.07;;
70920;SDS011;58572;48.110;19.838;2023-08-06T01:25:26;9.15;;;7.35;;
70920;SDS011;58572;48.110;19.838;2023-08-06T01:28:01;11.75;;;7.78;;
70920;SDS011;58572;48.110;19.838;2023-08-06T01:30:37;12.30;;;8.90;;
70920;SDS011;58572;48.110;19.838;2023-08-06T01:33:09;10.82;;;8.27;;
70920;SDS011;58572;48.110;19.838;2023-08-06T01:35:42;12.52;;;9.18;;
70920;SDS011;58572;48.110;19.838;2023-08-06T01:38:11;14.77;;;9.35;;
70920;SDS011;58572;48.110;19.838;2023-08-06T01:43:05;14.18;;;9.25;;
70920;SDS011;58572;48.110;19.838;2023-08-06T01:45:33;13.23;;;9.70;;
70920;SDS011;58572;48.110;19.838;2023-08-06T01:50:27;14.07;;;9.45;;
70920;SDS011;58572;48.110;19.838;2023-08-06T01:52:56;15.73;;;8.82;;
70920;SDS011;58572;48.110;19.838;2023-08-06T01:55:23;18.35;;;10.45;;
70920;SDS011;58572;48.110;19.838;2023-08-06T01:57:50;15.43;;;9.82;;
70920;SDS011;58572;48.110;19.838;2023-08-06T02:00:17;14.40;;;9.95;;
70920;SDS011;58572;48.110;19.838;2023-08-06T02:02:44;14.88;;;9.75;;
70920;SDS011;58572;48.110;19.838;2023-08-06T02:05:11;14.88;;;10.73;;
70920;SDS011;58572;48.110;19.838;2023-08-06T02:07:38;15.88;;;11.38;;
70920;SDS011;58572;48.110;19.838;2023-08-06T02:10:08;15.68;;;11.27;;
70920;SDS011;58572;48.110;19.838;2023-08-06T02:12:35;20.67;;;11.90;;
70920;SDS011;58572;48.110;19.838;2023-08-06T02:15:02;17.92;;;11.55;;
70920;SDS011;58572;48.110;19.838;2023-08-06T02:17:30;17.60;;;12.05;;
70920;SDS011;58572;48.110;19.838;2023-08-06T02:19:57;17.13;;;12.38;;
70920;SDS011;58572;48.110;19.838;2023-08-06T02:22:24;20.08;;;13.65;;
70920;SDS011;58572;48.110;19.838;2023-08-06T02:24:51;19.23;;;12.90;;
70920;SDS011;58572;48.110;19.838;2023-08-06T02:27:20;17.38;;;12.43;;
70920;SDS011;58572;48.110;19.838;2023-08-06T02:29:47;20.23;;;12.32;;
70920;SDS011;58572;48.110;19.838;2023-08-06T02:32:14;18.50;;;12.07;;
70920;SDS011;58572;48.110;19.838;2023-08-06T02:34:41;17.42;;;10.48;;
70920;SDS011;58572;48.110;19.838;2023-08-06T02:37:08;17.73;;;11.75;;
70920;SDS011;58572;48.110;19.838;2023-08-06T02:39:35;15.43;;;10.13;;
70920;SDS011;58572;48.110;19.838;2023-08-06T02:42:05;19.35;;;11.52;;
70920;SDS011;58572;48.110;19.838;2023-08-06T02:44:34;14.35;;;11.02;;
70920;SDS011;58572;48.110;19.838;2023-08-06T02:47:01;15.07;;;10.45;;
70920;SDS011;58572;48.110;19.838;2023-08-06T02:49:29;17.88;;;10.65;;
70920;SDS011;58572;48.110;19.838;2023-08-06T02:54:23;16.85;;;9.60;;
70920;SDS011;58572;48.110;19.838;2023-08-06T02:56:50;16.58;;;10.82;;
70920;SDS011;58572;48.110;19.838;2023-08-06T02:59:17;14.48;;;10.38;;
70920;SDS011;58572;48.110;19.838;2023-08-06T03:01:46;17.08;;;12.23;;
70920;SDS011;58572;48.110;19.838;2023-08-06T03:04:13;15.32;;;11.02;;
70920;SDS011;58572;48.110;19.838;2023-08-06T03:06:40;13.50;;;10.02;;
70920;SDS011;58572;48.110;19.838;2023-08-06T03:09:07;17.20;;;11.57;;
70920;SDS011;58572;48.110;19.838;2023-08-06T03:11:34;12.73;;;9.13;;
70920;SDS011;58572;48.110;19.838;2023-08-06T03:14:02;13.63;;;10.20;;
70920;SDS011;58572;48.110;19.838;2023-08-06T03:16:29;15.27;;;10.18;;
70920;SDS011;58572;48.110;19.838;2023-08-06T03:18:57;14.18;;;9.98;;
70920;SDS011;58572;48.110;19.838;2023-08-06T03:21:25;13.18;;;9.18;;
70920;SDS011;58572;48.110;19.838;2023-08-06T03:23:52;12.75;;;9.15;;
70920;SDS011;58572;48.110;19.838;2023-08-06T03:26:19;14.70;;;10.57;;
70920;SDS011;58572;48.110;19.838;2023-08-06T03:28:46;12.63;;;9.27;;
70920;SDS011;58572;48.110;19.838;2023-08-06T03:31:13;13.20;;;9.00;;
70920;SDS011;58572;48.110;19.838;2023-08-06T03:33:40;12.88;;;9.30;;
70920;SDS011;58572;48.110;19.838;2023-08-06T03:36:09;14.95;;;9.10;;
70920;SDS011;58572;48.110;19.838;2023-08-06T03:38:36;13.38;;;8.43;;
70920;SDS011;58572;48.110;19.838;2023-08-06T03:41:03;12.20;;;7.45;;
70920;SDS011;58572;48.110;19.838;2023-08-06T03:43:30;10.75;;;7.88;;
70920;SDS011;58572;48.110;19.838;2023-08-06T03:45:58;8.40;;;6.03;;
70920;SDS011;58572;48.110;19.838;2023-08-06T03:48:25;6.25;;;4.25;;
70920;SDS011;58572;48.110;19.838;2023-08-06T03:50:52;7.07;;;4.97;;
70920;SDS011;58572;48.110;19.838;2023-08-06T03:55:47;5.60;;;3.50;;
70920;SDS011;58572;48.110;19.838;2023-08-06T03:58:14;6.05;;;3.83;;
70920;SDS011;58572;48.110;19.838;2023-08-06T04:00:42;6.10;;;3.80;;
70920;SDS011;58572;48.110;19.838;2023-08-06T04:03:09;6.68;;;3.78;;
70920;SDS011;58572;48.110;19.838;2023-08-06T04:05:36;5.93;;;3.78;;
70920;SDS011;58572;48.110;19.838;2023-08-06T04:08:03;5.15;;;3.60;;
70920;SDS011;58572;48.110;19.838;2023-08-06T04:10:32;8.77;;;3.88;;
70920;SDS011;58572;48.110;19.838;2023-08-06T04:12:59;6.80;;;3.50;;
70920;SDS011;58572;48.110;19.838;2023-08-06T04:15:26;5.47;;;3.65;;
70920;SDS011;58572;48.110;19.838;2023-08-06T04:17:53;5.00;;;2.95;;
70920;SDS011;58572;48.110;19.838;2023-08-06T04:20:22;5.60;;;3.33;;
70920;SDS011;58572;48.110;19.838;2023-08-06T04:22:49;6.05;;;3.20;;
70920;SDS011;58572;48.110;19.838;2023-08-06T04:25:16;5.65;;;3.20;;
70920;SDS011;58572;48.110;19.838;2023-08-06T04:27:47;4.68;;;2.92;;
70920;SDS011;58572;48.110;19.838;2023-08-06T04:30:14;5.35;;;3.17;;
70920;SDS011;58572;48.110;19.838;2023-08-06T04:35:08;6.07;;;3.10;;
70920;SDS011;58572;48.110;19.838;2023-08-06T04:37:36;5.28;;;3.00;;
70920;SDS011;58572;48.110;19.838;2023-08-06T04:40:03;5.18;;;3.13;;
70920;SDS011;58572;48.110;19.838;2023-08-06T04:42:31;5.10;;;2.92;;
70920;SDS011;58572;48.110;19.838;2023-08-06T04:45:00;7.32;;;3.30;;
70920;SDS011;58572;48.110;19.838;2023-08-06T04:47:28;4.97;;;2.90;;
70920;SDS011;58572;48.110;19.838;2023-08-06T04:49:55;5.05;;;3.05;;
70920;SDS011;58572;48.110;19.838;2023-08-06T04:52:22;5.80;;;3.45;;
70920;SDS011;58572;48.110;19.838;2023-08-06T04:54:52;5.60;;;3.38;;
70920;SDS011;58572;48.110;19.838;2023-08-06T04:57:20;4.30;;;2.88;;
70920;SDS011;58572;48.110;19.838;2023-08-06T04:59:47;4.65;;;3.35;;
70920;SDS011;58572;48.110;19.838;2023-08-06T05:04:43;4.95;;;2.65;;
70920;SDS011;58572;48.110;19.838;2023-08-06T05:09:37;5.85;;;2.70;;
70920;SDS011;58572;48.110;19.838;2023-08-06T05:12:05;4.90;;;2.80;;
70920;SDS011;58572;48.110;19.838;2023-08-06T05:14:33;5.35;;;2.80;;
70920;SDS011;58572;48.110;19.838;2023-08-06T05:19:31;3.88;;;2.70;;
70920;SDS011;58572;48.110;19.838;2023-08-06T05:21:58;7.57;;;3.38;;
70920;SDS011;58572;48.110;19.838;2023-08-06T05:24:26;4.55;;;2.30;;
70920;SDS011;58572;48.110;19.838;2023-08-06T05:26:53;4.25;;;2.80;;
70920;SDS011;58572;48.110;19.838;2023-08-06T05:29:20;5.32;;;2.90;;
70920;SDS011;58572;48.110;19.838;2023-08-06T05:31:47;4.57;;;2.97;;
70920;SDS011;58572;48.110;19.838;2023-08-06T05:34:14;5.20;;;2.72;;
70920;SDS011;58572;48.110;19.838;2023-08-06T05:36:43;5.82;;;3.13;;
70920;SDS011;58572;48.110;19.838;2023-08-06T05:39:10;5.20;;;2.90;;
70920;SDS011;58572;48.110;19.838;2023-08-06T05:41:37;4.03;;;2.80;;
70920;SDS011;58572;48.110;19.838;2023-08-06T05:44:04;4.60;;;3.30;;
70920;SDS011;58572;48.110;19.838;2023-08-06T05:46:32;4.63;;;2.20;;
70920;SDS011;58572;48.110;19.838;2023-08-06T05:51:26;4.88;;;2.30;;
70920;SDS011;58572;48.110;19.838;2023-08-06T05:53:55;4.88;;;2.95;;
70920;SDS011;58572;48.110;19.838;2023-08-06T05:56:23;3.35;;;2.25;;
70920;SDS011;58572;48.110;19.838;2023-08-06T05:58:50;3.63;;;2.42;;
70920;SDS011;58572;48.110;19.838;2023-08-06T06:01:18;4.70;;;2.28;;
70920;SDS011;58572;48.110;19.838;2023-08-06T06:03:45;3.08;;;2.00;;
70920;SDS011;58572;48.110;19.838;2023-08-06T06:06:13;3.03;;;1.60;;
70920;SDS011;58572;48.110;19.838;2023-08-06T06:08:41;3.03;;;1.75;;
70920;SDS011;58572;48.110;19.838;2023-08-06T06:11:10;2.45;;;1.50;;
70920;SDS011;58572;48.110;19.838;2023-08-06T06:13:37;2.60;;;1.42;;
70920;SDS011;58572;48.110;19.838;2023-08-06T06:16:04;2.17;;;1.20;;
70920;SDS011;58572;48.110;19.838;2023-08-06T06:20:58;2.00;;;1.25;;
70920;SDS011;58572;48.110;19.838;2023-08-06T06:23:25;2.50;;;1.30;;
70920;SDS011;58572;48.110;19.838;2023-08-06T06:25:52;2.03;;;1.10;;
70920;SDS011;58572;48.110;19.838;2023-08-06T06:28:22;3.92;;;1.55;;
70920;SDS011;58572;48.110;19.838;2023-08-06T06:30:49;2.88;;;1.50;;
70920;SDS011;58572;48.110;19.838;2023-08-06T06:33:17;2.65;;;1.60;;
70920;SDS011;58572;48.110;19.838;2023-08-06T06:35:45;1.60;;;0.90;;
70920;SDS011;58572;48.110;19.838;2023-08-06T06:38:12;2.53;;;1.20;;
70920;SDS011;58572;48.110;19.838;2023-08-06T06:40:39;1.65;;;1.10;;
70920;SDS011;58572;48.110;19.838;2023-08-06T06:43:06;1.75;;;1.02;;
70920;SDS011;58572;48.110;19.838;2023-08-06T06:45:35;3.30;;;1.13;;
70920;SDS011;58572;48.110;19.838;2023-08-06T06:48:03;2.80;;;1.00;;
70920;SDS011;58572;48.110;19.838;2023-08-06T06:50:30;2.03;;;0.95;;
70920;SDS011;58572;48.110;19.838;2023-08-06T06:52:57;4.93;;;1.05;;
70920;SDS011;58572;48.110;19.838;2023-08-06T06:55:24;1.83;;;1.00;;
70920;SDS011;58572;48.110;19.838;2023-08-06T06:57:51;1.80;;;0.80;;
70920;SDS011;58572;48.110;19.838;2023-08-06T07:00:19;1.83;;;1.10;;
70920;SDS011;58572;48.110;19.838;2023-08-06T07:02:47;2.17;;;1.15;;
70920;SDS011;58572;48.110;19.838;2023-08-06T07:05:14;1.80;;;1.00;;
70920;SDS011;58572;48.110;19.838;2023-08-06T07:07:41;2.35;;;1.05;;
70920;SDS011;58572;48.110;19.838;2023-08-06T07:10:09;2.03;;;1.20;;
70920;SDS011;58572;48.110;19.838;2023-08-06T07:12:36;3.03;;;1.27;;
70920;SDS011;58572;48.110;19.838;2023-08-06T07:15:04;2.30;;;1.58;;
70920;SDS011;58572;48.110;19.838;2023-08-06T07:17:32;3.53;;;1.35;;
70920;SDS011;58572;48.110;19.838;2023-08-06T07:20:01;2.45;;;1.33;;
70920;SDS011;58572;48.110;19.838;2023-08-06T07:22:28;2.33;;;1.08;;
70920;SDS011;58572;48.110;19.838;2023-08-06T07:24:55;2.17;;;1.20;;
70920;SDS011;58572;48.110;19.838;2023-08-06T07:27:22;2.45;;;1.30;;
70920;SDS011;58572;48.110;19.838;2023-08-06T07:29:50;2.53;;;1.00;;
70920;SDS011;58572;48.110;19.838;2023-08-06T07:32:17;2.63;;;1.30;;
70920;SDS011;58572;48.110;19.838;2023-08-06T07:34:44;2.60;;;1.35;;
70920;SDS011;58572;48.110;19.838;2023-08-06T07:37:13;2.47;;;1.25;;
70920;SDS011;58572;48.110;19.838;2023-08-06T07:39:42;3.10;;;1.30;;
70920;SDS011;58572;48.110;19.838;2023-08-06T07:42:10;3.20;;;1.40;;
70920;SDS011;58572;48.110;19.838;2023-08-06T07:44:37;3.47;;;1.30;;
70920;SDS011;58572;48.110;19.838;2023-08-06T07:47:05;3.15;;;1.70;;
70920;SDS011;58572;48.110;19.838;2023-08-06T07:49:32;2.40;;;1.40;;
70920;SDS011;58572;48.110;19.838;2023-08-06T07:52:00;2.53;;;1.20;;
70920;SDS011;58572;48.110;19.838;2023-08-06T07:54:29;3.33;;;1.50;;
70920;SDS011;58572;48.110;19.838;2023-08-06T07:56:56;3.60;;;1.75;;
70920;SDS011;58572;48.110;19.838;2023-08-06T07:59:23;2.90;;;1.60;;
70920;SDS011;58572;48.110;19.838;2023-08-06T08:01:50;2.60;;;1.40;;
70920;SDS011;58572;48.110;19.838;2023-08-06T08:04:17;2.90;;;1.73;;
70920;SDS011;58572;48.110;19.838;2023-08-06T08:06:46;5.68;;;2.05;;
70920;SDS011;58572;48.110;19.838;2023-08-06T08:09:13;2.83;;;1.55;;
70920;SDS011;58572;48.110;19.838;2023-08-06T08:11:42;3.55;;;1.50;;
70920;SDS011;58572;48.110;19.838;2023-08-06T08:14:09;4.38;;;1.80;;
70920;SDS011;58572;48.110;19.838;2023-08-06T08:16:37;6.38;;;1.45;;
70920;SDS011;58572;48.110;19.838;2023-08-06T08:19:04;5.07;;;1.10;;
70920;SDS011;58572;48.110;19.838;2023-08-06T08:21:31;2.88;;;1.20;;
70920;SDS011;58572;48.110;19.838;2023-08-06T08:23:59;8.25;;;1.33;;
70920;SDS011;58572;48.110;19.838;2023-08-06T08:26:28;4.68;;;1.10;;
70920;SDS011;58572;48.110;19.838;2023-08-06T08:29:04;2.85;;;1.08;;
70920;SDS011;58572;48.110;19.838;2023-08-06T08:31:36;2.95;;;0.85;;
70920;SDS011;58572;48.110;19.838;2023-08-06T08:36:46;1.55;;;0.90;;
70920;SDS011;58572;48.110;19.838;2023-08-06T08:39:19;1.27;;;0.80;;
70920;SDS011;58572;48.110;19.838;2023-08-06T08:42:15;1.45;;;0.80;;
70920;SDS011;58572;48.110;19.838;2023-08-06T08:45:26;2.03;;;0.63;;
70920;SDS011;58572;48.110;19.838;2023-08-06T08:48:05;1.83;;;0.82;;
70920;SDS011;58572;48.110;19.838;2023-08-06T08:50:43;1.48;;;0.60;;
70920;SDS011;58572;48.110;19.838;2023-08-06T08:53:17;1.60;;;0.60;;
70920;SDS011;58572;48.110;19.838;2023-08-06T08:55:52;1.70;;;0.75;;
70920;SDS011;58572;48.110;19.838;2023-08-06T08:58:25;1.90;;;0.80;;
70920;SDS011;58572;48.110;19.838;2023-08-06T09:01:04;2.08;;;0.80;;
70920;SDS011;58572;48.110;19.838;2023-08-06T09:03:46;1.98;;;0.77;;
70920;SDS011;58572;48.110;19.838;2023-08-06T09:10:42;1.52;;;0.80;;
70920;SDS011;58572;48.110;19.838;2023-08-06T09:13:55;1.48;;;0.80;;
70920;SDS011;58572;48.110;19.838;2023-08-06T09:16:37;2.33;;;0.57;;
70920;SDS011;58572;48.110;19.838;2023-08-06T09:19:14;3.85;;;0.93;;
70920;SDS011;58572;48.110;19.838;2023-08-06T09:21:57;2.13;;;0.93;;
70920;SDS011;58572;48.110;19.838;2023-08-06T09:24:29;1.95;;;0.90;;
70920;SDS011;58572;48.110;19.838;2023-08-06T09:27:01;2.05;;;0.80;;
70920;SDS011;58572;48.110;19.838;2023-08-06T09:29:43;1.85;;;0.75;;
70920;SDS011;58572;48.110;19.838;2023-08-06T09:32:21;1.50;;;0.90;;
70920;SDS011;58572;48.110;19.838;2023-08-06T09:35:10;1.80;;;0.80;;
70920;SDS011;58572;48.110;19.838;2023-08-06T09:37:47;3.80;;;1.10;;
70920;SDS011;58572;48.110;19.838;2023-08-06T09:40:31;4.22;;;1.05;;
70920;SDS011;58572;48.110;19.838;2023-08-06T09:43:04;2.30;;;0.95;;
70920;SDS011;58572;48.110;19.838;2023-08-06T09:45:38;3.53;;;0.90;;
70920;SDS011;58572;48.110;19.838;2023-08-06T10:01:54;1.92;;;0.95;;
70920;SDS011;58572;48.110;19.838;2023-08-06T10:04:22;2.15;;;1.02;;
70920;SDS011;58572;48.110;19.838;2023-08-06T10:06:50;1.83;;;1.00;;
70920;SDS011;58572;48.110;19.838;2023-08-06T10:11:47;3.92;;;0.88;;
70920;SDS011;58572;48.110;19.838;2023-08-06T10:14:19;1.55;;;0.95;;
70920;SDS011;58572;48.110;19.838;2023-08-06T10:16:49;2.28;;;0.90;;
70920;SDS011;58572;48.110;19.838;2023-08-06T10:19:19;2.28;;;0.80;;
70920;SDS011;58572;48.110;19.838;2023-08-06T10:24:45;2.42;;;0.88;;
70920;SDS011;58572;48.110;19.838;2023-08-06T10:27:13;3.25;;;0.68;;
70920;SDS011;58572;48.110;19.838;2023-08-06T10:29:40;1.38;;;0.43;;
70920;SDS011;58572;48.110;19.838;2023-08-06T10:32:07;3.20;;;0.60;;
70920;SDS011;58572;48.110;19.838;2023-08-06T10:37:54;2.40;;;0.45;;
70920;SDS011;58572;48.110;19.838;2023-08-06T10:40:25;1.10;;;0.40;;
70920;SDS011;58572;48.110;19.838;2023-08-06T10:42:52;1.17;;;0.70;;
70920;SDS011;58572;48.110;19.838;2023-08-06T10:45:20;2.50;;;0.50;;
70920;SDS011;58572;48.110;19.838;2023-08-06T10:47:49;1.30;;;0.60;;
70920;SDS011;58572;48.110;19.838;2023-08-06T10:50:18;1.05;;;0.60;;
70920;SDS011;58572;48.110;19.838;2023-08-06T10:52:45;0.82;;;0.65;;
70920;SDS011;58572;48.110;19.838;2023-08-06T10:55:13;0.77;;;0.50;;
70920;SDS011;58572;48.110;19.838;2023-08-06T10:57:48;0.70;;;0.63;;
70920;SDS011;58572;48.110;19.838;2023-08-06T11:00:15;1.27;;;0.77;;
70920;SDS011;58572;48.110;19.838;2023-08-06T11:02:42;0.77;;;0.30;;
70920;SDS011;58572;48.110;19.838;2023-08-06T11:05:10;1.10;;;0.60;;
70920;SDS011;58572;48.110;19.838;2023-08-06T11:07:39;1.80;;;0.60;;
70920;SDS011;58572;48.110;19.838;2023-08-06T11:10:08;1.73;;;0.50;;
70920;SDS011;58572;48.110;19.838;2023-08-06T11:12:36;1.05;;;0.77;;
70920;SDS011;58572;48.110;19.838;2023-08-06T11:15:04;1.02;;;0.70;;
70920;SDS011;58572;48.110;19.838;2023-08-06T11:17:33;3.90;;;0.90;;
70920;SDS011;58572;48.110;19.838;2023-08-06T11:20:02;1.40;;;0.80;;
70920;SDS011;58572;48.110;19.838;2023-08-06T11:22:30;1.08;;;0.70;;
70920;SDS011;58572;48.110;19.838;2023-08-06T11:24:59;1.02;;;0.50;;
70920;SDS011;58572;48.110;19.838;2023-08-06T11:27:27;1.02;;;0.50;;
70920;SDS011;58572;48.110;19.838;2023-08-06T11:29:55;0.88;;;0.70;;
70920;SDS011;58572;48.110;19.838;2023-08-06T11:32:22;1.10;;;0.43;;
70920;SDS011;58572;48.110;19.838;2023-08-06T11:34:49;2.25;;;0.90;;
70920;SDS011;58572;48.110;19.838;2023-08-06T11:37:17;1.70;;;0.50;;
70920;SDS011;58572;48.110;19.838;2023-08-06T11:39:49;1.33;;;0.90;;
70920;SDS011;58572;48.110;19.838;2023-08-06T11:42:18;1.38;;;0.85;;
70920;SDS011;58572;48.110;19.838;2023-08-06T11:44:45;1.33;;;0.88;;
70920;SDS011;58572;48.110;19.838;2023-08-06T11:47:14;1.20;;;0.80;;
70920;SDS011;58572;48.110;19.838;2023-08-06T11:49:43;1.17;;;0.80;;
70920;SDS011;58572;48.110;19.838;2023-08-06T11:52:15;0.98;;;0.57;;
70920;SDS011;58572;48.110;19.838;2023-08-06T11:54:45;3.80;;;1.20;;
70920;SDS011;58572;48.110;19.838;2023-08-06T11:57:13;1.40;;;0.93;;
70920;SDS011;58572;48.110;19.838;2023-08-06T11:59:43;1.40;;;0.90;;
70920;SDS011;58572;48.110;19.838;2023-08-06T12:02:11;1.35;;;0.80;;
70920;SDS011;58572;48.110;19.838;2023-08-06T12:07:37;1.60;;;0.73;;
70920;SDS011;58572;48.110;19.838;2023-08-06T12:10:06;2.60;;;0.80;;
70920;SDS011;58572;48.110;19.838;2023-08-06T12:12:33;1.75;;;0.98;;
70920;SDS011;58572;48.110;19.838;2023-08-06T12:17:29;1.17;;;0.80;;
70920;SDS011;58572;48.110;19.838;2023-08-06T12:19:56;1.55;;;0.80;;
70920;SDS011;58572;48.110;19.838;2023-08-06T12:22:24;0.90;;;0.60;;
70920;SDS011;58572;48.110;19.838;2023-08-06T12:24:52;0.93;;;0.60;;
70920;SDS011;58572;48.110;19.838;2023-08-06T12:27:19;1.75;;;0.60;;
70920;SDS011;58572;48.110;19.838;2023-08-06T12:29:47;1.05;;;0.75;;
70920;SDS011;58572;48.110;19.838;2023-08-06T12:32:17;2.22;;;0.80;;
70920;SDS011;58572;48.110;19.838;2023-08-06T12:34:45;1.08;;;0.65;;
70920;SDS011;58572;48.110;19.838;2023-08-06T12:37:12;1.25;;;0.75;;
70920;SDS011;58572;48.110;19.838;2023-08-06T12:42:06;1.10;;;0.68;;
70920;SDS011;58572;48.110;19.838;2023-08-06T12:44:34;1.33;;;0.50;;
70920;SDS011;58572;48.110;19.838;2023-08-06T12:47:02;1.58;;;0.70;;
70920;SDS011;58572;48.110;19.838;2023-08-06T12:49:31;2.25;;;0.98;;
70920;SDS011;58572;48.110;19.838;2023-08-06T12:51:58;1.33;;;0.75;;
70920;SDS011;58572;48.110;19.838;2023-08-06T12:54:26;1.70;;;0.70;;
70920;SDS011;58572;48.110;19.838;2023-08-06T12:56:54;0.85;;;0.60;;
70920;SDS011;58572;48.110;19.838;2023-08-06T12:59:23;2.55;;;0.80;;
70920;SDS011;58572;48.110;19.838;2023-08-06T13:01:50;2.38;;;0.82;;
70920;SDS011;58572;48.110;19.838;2023-08-06T13:04:19;1.65;;;0.68;;
70920;SDS011;58572;48.110;19.838;2023-08-06T13:06:48;2.10;;;0.77;;
70920;SDS011;58572;48.110;19.838;2023-08-06T13:09:16;1.10;;;0.70;;
70920;SDS011;58572;48.110;19.838;2023-08-06T13:11:43;2.10;;;0.60;;
70920;SDS011;58572;48.110;19.838;2023-08-06T13:14:12;0.70;;;0.40;;
70920;SDS011;58572;48.110;19.838;2023-08-06T13:16:41;1.45;;;0.70;;
70920;SDS011;58572;48.110;19.838;2023-08-06T13:19:09;1.95;;;0.40;;
70920;SDS011;58572;48.110;19.838;2023-08-06T13:21:58;0.50;;;0.40;;
70920;SDS011;58572;48.110;19.838;2023-08-06T13:24:27;2.20;;;0.77;;
70920;SDS011;58572;48.110;19.838;2023-08-06T13:26:55;1.17;;;0.50;;
70920;SDS011;58572;48.110;19.838;2023-08-06T13:29:22;0.80;;;0.60;;
70920;SDS011;58572;48.110;19.838;2023-08-06T13:31:49;1.88;;;0.75;;
70920;SDS011;58572;48.110;19.838;2023-08-06T13:34:16;0.65;;;0.60;;
70920;SDS011;58572;48.110;19.838;2023-08-06T13:36:43;0.80;;;0.60;;
70920;SDS011;58572;48.110;19.838;2023-08-06T13:39:12;0.90;;;0.60;;
70920;SDS011;58572;48.110;19.838;2023-08-06T13:41:41;0.70;;;0.63;;
70920;SDS011;58572;48.110;19.838;2023-08-06T13:44:08;0.70;;;0.60;;
70920;SDS011;58572;48.110;19.838;2023-08-06T13:46:36;1.30;;;0.70;;
70920;SDS011;58572;48.110;19.838;2023-08-06T13:49:03;0.60;;;0.52;;
70920;SDS011;58572;48.110;19.838;2023-08-06T13:51:30;0.90;;;0.70;;
70920;SDS011;58572;48.110;19.838;2023-08-06T13:53:59;0.93;;;0.73;;
70920;SDS011;58572;48.110;19.838;2023-08-06T13:56:28;0.57;;;0.47;;
70920;SDS011;58572;48.110;19.838;2023-08-06T13:58:55;0.47;;;0.43;;
70920;SDS011;58572;48.110;19.838;2023-08-06T14:01:25;2.05;;;0.38;;
70920;SDS011;58572;48.110;19.838;2023-08-06T14:06:20;0.70;;;0.60;;
70920;SDS011;58572;48.110;19.838;2023-08-06T14:08:47;0.75;;;0.60;;
70920;SDS011;58572;48.110;19.838;2023-08-06T14:11:14;0.98;;;0.70;;
70920;SDS011;58572;48.110;19.838;2023-08-06T14:13:42;1.13;;;0.65;;
70920;SDS011;58572;48.110;19.838;2023-08-06T14:16:10;0.68;;;0.57;;
70920;SDS011;58572;48.110;19.838;2023-08-06T14:18:37;0.85;;;0.60;;
70920;SDS011;58572;48.110;19.838;2023-08-06T14:21:04;0.63;;;0.40;;
70920;SDS011;58572;48.110;19.838;2023-08-06T14:23:31;1.67;;;0.55;;
70920;SDS011;58572;48.110;19.838;2023-08-06T14:25:59;0.70;;;0.70;;
70920;SDS011;58572;48.110;19.838;2023-08-06T14:28:26;1.08;;;0.40;;
70920;SDS011;58572;48.110;19.838;2023-08-06T14:30:54;1.20;;;0.52;;
70920;SDS011;58572;48.110;19.838;2023-08-06T14:33:22;0.63;;;0.40;;
70920;SDS011;58572;48.110;19.838;2023-08-06T14:38:16;0.93;;;0.60;;
70920;SDS011;58572;48.110;19.838;2023-08-06T14:40:43;0.70;;;0.55;;
70920;SDS011;58572;48.110;19.838;2023-08-06T14:45:38;0.63;;;0.47;;
70920;SDS011;58572;48.110;19.838;2023-08-06T14:48:07;0.50;;;0.43;;
70920;SDS011;58572;48.110;19.838;2023-08-06T14:50:34;0.57;;;0.45;;
70920;SDS011;58572;48.110;19.838;2023-08-06T14:53:02;1.17;;;0.88;;
70920;SDS011;58572;48.110;19.838;2023-08-06T14:55:29;0.52;;;0.40;;
70920;SDS011;58572;48.110;19.838;2023-08-06T14:57:57;1.00;;;0.50;;
70920;SDS011;58572;48.110;19.838;2023-08-06T15:00:24;0.73;;;0.60;;
70920;SDS011;58572;48.110;19.838;2023-08-06T15:02:52;0.73;;;0.50;;
70920;SDS011;58572;48.110;19.838;2023-08-06T15:05:20;0.65;;;0.50;;
70920;SDS011;58572;48.110;19.838;2023-08-06T15:07:47;0.90;;;0.50;;
70920;SDS011;58572;48.110;19.838;2023-08-06T15:10:15;0.30;;;0.30;;
70920;SDS011;58572;48.110;19.838;2023-08-06T15:12:42;0.40;;;0.40;;
70920;SDS011;58572;48.110;19.838;2023-08-06T15:15:09;1.27;;;0.50;;
70920;SDS011;58572;48.110;19.838;2023-08-06T15:17:36;0.52;;;0.45;;
70920;SDS011;58572;48.110;19.838;2023-08-06T15:20:04;1.20;;;0.50;;
70920;SDS011;58572;48.110;19.838;2023-08-06T15:22:34;3.78;;;1.40;;
70920;SDS011;58572;48.110;19.838;2023-08-06T15:25:01;6.78;;;3.83;;
70920;SDS011;58572;48.110;19.838;2023-08-06T15:27:29;51.55;;;30.40;;
70920;SDS011;58572;48.110;19.838;2023-08-06T15:29:57;2.80;;;1.80;;
70920;SDS011;58572;48.110;19.838;2023-08-06T15:32:24;2.67;;;1.13;;
70920;SDS011;58572;48.110;19.838;2023-08-06T15:34:52;1.00;;;0.68;;
70920;SDS011;58572;48.110;19.838;2023-08-06T15:37:20;1.23;;;0.60;;
70920;SDS011;58572;48.110;19.838;2023-08-06T15:39:48;1.70;;;0.50;;
70920;SDS011;58572;48.110;19.838;2023-08-06T15:42:16;0.90;;;0.43;;
70920;SDS011;58572;48.110;19.838;2023-08-06T15:44:43;0.65;;;0.55;;
70920;SDS011;58572;48.110;19.838;2023-08-06T15:47:10;1.05;;;0.70;;
70920;SDS011;58572;48.110;19.838;2023-08-06T15:49:38;0.68;;;0.43;;
70920;SDS011;58572;48.110;19.838;2023-08-06T15:52:05;1.40;;;0.60;;